createdAt,value
2023-03-11T00:01:34.383Z,10.27
2023-03-11T00:05:39.058Z,7.50
2023-03-11T00:09:40.449Z,11.00
2023-03-11T00:13:41.796Z,7.77
2023-03-11T00:17:43.309Z,8.90
2023-03-11T00:21:44.636Z,10.87
2023-03-11T00:25:46.891Z,10.00
2023-03-11T00:29:48.223Z,11.13
2023-03-11T00:33:49.608Z,10.63
2023-03-11T00:37:55.101Z,8.53
2023-03-11T00:41:56.641Z,10.37
2023-03-11T00:45:57.986Z,7.13
2023-03-11T00:49:59.781Z,8.47
2023-03-11T00:54:01.343Z,9.03
2023-03-11T00:58:05.455Z,9.40
2023-03-11T01:02:06.765Z,6.80
2023-03-11T01:06:08.779Z,11.83
2023-03-11T01:10:11.156Z,11.67
2023-03-11T01:14:12.622Z,10.67
2023-03-11T01:18:14.201Z,8.93
2023-03-11T01:22:16.041Z,5.87
2023-03-11T01:26:17.428Z,11.60
2023-03-11T01:30:21.947Z,8.57
2023-03-11T01:34:23.265Z,6.13
2023-03-11T01:38:24.578Z,9.40
2023-03-11T01:42:25.878Z,7.67
2023-03-11T01:46:31.223Z,5.10
2023-03-11T01:50:36.905Z,7.20
2023-03-11T01:54:40.612Z,8.73
2023-03-11T01:58:46.251Z,11.47
2023-03-11T02:02:52.794Z,8.53
2023-03-11T02:06:56.153Z,10.37
2023-03-11T02:10:57.707Z,14.67
2023-03-11T02:15:00.456Z,14.60
2023-03-11T02:19:26.767Z,12.73
2023-03-11T02:23:36.536Z,11.67
2023-03-11T02:27:42.148Z,7.80
2023-03-11T02:31:44.210Z,7.57
2023-03-11T02:35:45.721Z,8.43
2023-03-11T02:39:51.080Z,7.63
2023-03-11T02:43:52.714Z,10.27
2023-03-11T02:47:56.425Z,8.97
2023-03-11T02:51:57.829Z,7.97
2023-03-11T02:55:59.264Z,7.70
2023-03-11T03:00:06.384Z,7.60
2023-03-11T03:04:07.809Z,5.70
2023-03-11T03:08:09.265Z,7.37
2023-03-11T03:12:10.659Z,12.90
2023-03-11T03:16:12.519Z,6.87
2023-03-11T03:20:14.751Z,9.30
2023-03-11T03:24:16.278Z,6.47
2023-03-11T03:28:17.661Z,6.13
2023-03-11T03:32:19.011Z,8.03
2023-03-11T03:36:20.373Z,8.03
2023-03-11T03:40:21.903Z,11.63
2023-03-11T03:44:23.228Z,10.50
2023-03-11T03:48:24.754Z,5.83
2023-03-11T03:52:26.113Z,6.63
2023-03-11T03:56:27.393Z,8.37
2023-03-11T04:00:28.735Z,4.97
2023-03-11T04:04:30.658Z,5.57
2023-03-11T04:08:31.989Z,6.60
2023-03-11T04:12:33.318Z,8.60
2023-03-11T04:16:34.764Z,10.07
2023-03-11T04:20:38.678Z,10.47
2023-03-11T04:24:40.026Z,5.33
2023-03-11T04:28:41.832Z,6.50
2023-03-11T04:32:43.436Z,6.80
2023-03-11T04:36:44.834Z,7.57
2023-03-11T04:40:46.217Z,7.90
2023-03-11T04:44:47.642Z,12.00
2023-03-11T04:48:49.087Z,7.53
2023-03-11T04:52:50.491Z,6.40
2023-03-11T04:56:51.852Z,8.43
2023-03-11T05:00:53.326Z,6.87
2023-03-11T05:04:54.759Z,6.30
2023-03-11T05:08:56.152Z,5.80
2023-03-11T05:12:57.427Z,5.63
2023-03-11T05:16:58.872Z,13.33
2023-03-11T05:21:00.237Z,7.50
2023-03-11T05:25:01.643Z,9.97
2023-03-11T05:29:02.958Z,9.07
2023-03-11T05:33:04.374Z,7.13
2023-03-11T05:37:05.938Z,5.40
2023-03-11T05:41:07.366Z,8.57
2023-03-11T05:45:09.921Z,12.40
2023-03-11T05:49:11.318Z,5.50
2023-03-11T05:53:12.737Z,8.03
2023-03-11T05:57:14.098Z,6.83
2023-03-11T06:01:17.567Z,8.77
2023-03-11T06:05:19.111Z,6.53
2023-03-11T06:09:20.536Z,10.40
2023-03-11T06:13:21.899Z,7.87
2023-03-11T06:17:23.314Z,7.53
2023-03-11T06:21:26.633Z,6.90
2023-03-11T06:25:28.011Z,8.67
2023-03-11T06:29:29.950Z,6.77
2023-03-11T06:33:31.251Z,8.67
2023-03-11T06:37:36.905Z,6.80
2023-03-11T06:41:38.190Z,5.50
2023-03-11T06:45:39.525Z,7.17
2023-03-11T06:49:42.576Z,5.37
2023-03-11T06:53:47.904Z,9.20
2023-03-11T06:57:49.312Z,7.97
2023-03-11T07:01:50.660Z,5.90
2023-03-11T07:05:52.128Z,9.53
2023-03-11T07:09:55.919Z,5.27
2023-03-11T07:13:57.289Z,8.13
2023-03-11T07:17:58.832Z,7.60
2023-03-11T07:22:00.346Z,6.60
2023-03-11T07:26:02.015Z,6.17
2023-03-11T07:30:03.653Z,5.90
2023-03-11T07:34:11.157Z,6.63
2023-03-11T07:38:12.577Z,7.47
2023-03-11T07:42:13.876Z,6.93
2023-03-11T07:46:18.450Z,6.87
2023-03-11T07:50:22.186Z,13.10
2023-03-11T07:54:23.620Z,6.20
2023-03-11T07:58:25.786Z,4.73
2023-03-11T08:02:27.304Z,10.43
2023-03-11T08:06:31.307Z,7.57
2023-03-11T08:10:32.730Z,5.73
2023-03-11T08:14:34.077Z,6.47
2023-03-11T08:18:35.450Z,4.63
2023-03-11T08:22:38.105Z,8.43
2023-03-11T08:26:42.814Z,7.17
2023-03-11T08:30:44.132Z,7.07
2023-03-11T08:34:45.596Z,7.17
2023-03-11T08:38:47.261Z,8.10
2023-03-11T08:42:49.245Z,6.70
2023-03-11T08:46:50.717Z,6.77
2023-03-11T08:50:54.633Z,6.93
2023-03-11T08:54:57.255Z,6.80
2023-03-11T08:58:58.711Z,7.10
2023-03-11T09:03:00.241Z,5.37
2023-03-11T09:07:01.629Z,7.23
2023-03-11T09:11:03.257Z,5.90
2023-03-11T09:15:05.789Z,3.70
2023-03-11T09:19:07.561Z,3.77
2023-03-11T09:23:11.120Z,5.73
2023-03-11T09:27:13.110Z,6.93
2023-03-11T09:31:15.781Z,6.27
2023-03-11T09:35:17.235Z,4.80
2023-03-11T09:39:18.760Z,2.13
2023-03-11T09:43:39.881Z,3.13
2023-03-11T09:48:07.832Z,5.70
2023-03-11T09:52:15.064Z,2.43
2023-03-11T09:56:22.230Z,2.57
2023-03-11T10:00:24.892Z,3.17
2023-03-11T10:04:34.113Z,3.67
2023-03-11T10:08:44.067Z,4.13
2023-03-11T10:13:28.631Z,2.47
2023-03-11T10:17:39.355Z,2.30
2023-03-11T10:21:58.327Z,2.30
2023-03-11T10:26:21.693Z,3.53
2023-03-11T10:30:33.729Z,2.07
2023-03-11T10:34:50.604Z,2.63
2023-03-11T10:38:53.882Z,1.87
2023-03-11T10:42:58.149Z,1.47
2023-03-11T10:46:59.685Z,2.53
2023-03-11T10:51:16.139Z,2.60
2023-03-11T10:55:19.908Z,2.37
2023-03-11T10:59:32.085Z,2.97
2023-03-11T11:03:34.688Z,4.90
2023-03-11T11:07:41.061Z,5.13
2023-03-11T11:12:00.344Z,2.17
2023-03-11T11:16:05.352Z,2.67
2023-03-11T11:20:17.972Z,1.83
2023-03-11T11:24:27.494Z,3.07
2023-03-11T11:28:28.999Z,1.93
2023-03-11T11:32:30.348Z,3.23
2023-03-11T11:36:35.729Z,4.20
2023-03-11T11:40:37.494Z,2.57
2023-03-11T11:44:40.161Z,1.70
2023-03-11T11:49:10.427Z,3.33
2023-03-11T11:53:24.970Z,3.10
2023-03-11T11:57:26.435Z,3.83
2023-03-11T12:01:48.886Z,3.80
2023-03-11T12:05:58.968Z,4.40
2023-03-11T12:10:24.306Z,4.03
2023-03-11T12:14:34.942Z,3.90
2023-03-11T12:18:50.172Z,3.07
2023-03-11T12:23:28.953Z,2.17
2023-03-11T12:27:36.082Z,3.10
2023-03-11T12:31:40.691Z,6.53
2023-03-11T12:35:49.747Z,3.53
2023-03-11T12:39:51.137Z,2.33
2023-03-11T12:43:52.393Z,2.90
2023-03-11T12:48:27.718Z,3.07
2023-03-11T12:52:30.032Z,3.83
2023-03-11T12:56:54.205Z,3.47
2023-03-11T13:01:23.191Z,3.57
2023-03-11T13:05:33.170Z,3.27
2023-03-11T13:09:34.902Z,6.20
2023-03-11T13:13:40.552Z,2.77
2023-03-11T13:17:42.000Z,2.87
2023-03-11T13:21:43.396Z,2.47
2023-03-11T13:26:10.773Z,3.50
2023-03-11T13:30:22.236Z,3.43
2023-03-11T13:34:40.412Z,2.23
2023-03-11T13:38:57.406Z,3.20
2023-03-11T13:43:05.483Z,2.60
2023-03-11T13:47:18.472Z,4.80
2023-03-11T13:51:32.228Z,4.23
2023-03-11T13:55:43.049Z,3.87
2023-03-11T13:59:44.353Z,4.53
2023-03-11T14:03:47.473Z,5.93
2023-03-11T14:07:48.877Z,7.53
2023-03-11T14:11:53.208Z,4.03
2023-03-11T14:16:00.389Z,4.27
2023-03-11T14:20:06.982Z,3.80
2023-03-11T14:24:17.073Z,2.33
2023-03-11T14:28:20.334Z,3.93
2023-03-11T14:32:31.244Z,3.47
2023-03-11T14:36:44.801Z,3.03
2023-03-11T14:40:55.312Z,5.23
2023-03-11T14:45:17.849Z,4.93
2023-03-11T14:49:23.079Z,5.00
2023-03-11T14:53:30.198Z,4.13
2023-03-11T14:57:39.564Z,4.77
2023-03-11T15:01:43.920Z,7.07
2023-03-11T15:06:06.925Z,4.13
2023-03-11T15:10:11.880Z,4.57
2023-03-11T15:14:25.068Z,3.47
2023-03-11T15:18:39.036Z,3.23
2023-03-11T15:22:40.964Z,5.60
2023-03-11T15:26:52.083Z,5.20
2023-03-11T15:31:33.548Z,5.43
2023-03-11T15:35:46.338Z,6.03
2023-03-11T15:39:52.066Z,3.90
2023-03-11T15:43:54.735Z,4.40
2023-03-11T15:47:56.066Z,5.27
2023-03-11T15:52:01.268Z,6.03
2023-03-11T15:56:11.282Z,5.47
2023-03-11T16:00:22.474Z,3.03
2023-03-11T16:04:24.005Z,5.07
2023-03-11T16:08:25.671Z,6.87
2023-03-11T16:12:27.015Z,3.70
2023-03-11T16:16:28.483Z,3.70
2023-03-11T16:20:36.694Z,2.47
2023-03-11T16:24:38.004Z,2.93
2023-03-11T16:28:40.243Z,3.47
2023-03-11T16:32:42.653Z,4.00
2023-03-11T16:36:44.091Z,3.93
2023-03-11T16:40:45.370Z,2.90
2023-03-11T16:44:46.703Z,4.47
2023-03-11T16:48:48.094Z,5.27
2023-03-11T16:52:49.937Z,5.87
2023-03-11T16:56:51.262Z,5.60
2023-03-11T17:00:52.626Z,5.30
2023-03-11T17:04:54.034Z,5.00
2023-03-11T17:08:55.410Z,5.30
2023-03-11T17:12:56.901Z,4.07
2023-03-11T17:16:58.829Z,5.27
2023-03-11T17:21:02.111Z,4.93
2023-03-11T17:25:03.971Z,10.73
2023-03-11T17:29:05.659Z,5.80
2023-03-11T17:33:07.027Z,4.53
2023-03-11T17:37:08.936Z,4.70
2023-03-11T17:41:17.243Z,7.17
2023-03-11T17:45:18.622Z,6.73
2023-03-11T17:49:20.032Z,9.47
2023-03-11T17:53:21.335Z,6.47
2023-03-11T17:57:25.021Z,10.03
2023-03-11T18:01:27.964Z,8.40
2023-03-11T18:05:29.321Z,4.77
2023-03-11T18:09:30.749Z,6.57
2023-03-11T18:13:33.361Z,5.97
2023-03-11T18:17:35.358Z,6.67
2023-03-11T18:21:36.825Z,5.67
2023-03-11T18:25:38.133Z,5.50
2023-03-11T18:29:39.573Z,5.57
2023-03-11T18:33:42.819Z,5.97
2023-03-11T18:37:44.133Z,9.43
2023-03-11T18:41:45.464Z,8.40
2023-03-11T18:45:46.847Z,6.07
2023-03-11T18:49:48.265Z,8.00
2023-03-11T18:53:49.580Z,6.67
2023-03-11T18:57:53.179Z,6.80
2023-03-11T19:01:54.970Z,5.33
2023-03-11T19:05:56.396Z,5.40
2023-03-11T19:09:57.876Z,6.57
2023-03-11T19:13:59.917Z,8.83
2023-03-11T19:18:06.985Z,8.47
2023-03-11T19:22:08.708Z,7.43
2023-03-11T19:26:10.124Z,5.83
2023-03-11T19:30:12.270Z,6.23
2023-03-11T19:34:13.648Z,9.23
2023-03-11T19:38:14.992Z,9.50
2023-03-11T19:42:16.345Z,16.57
2023-03-11T19:46:20.464Z,11.00
2023-03-11T19:50:22.564Z,15.90
2023-03-11T19:54:24.009Z,12.63
2023-03-11T19:58:30.231Z,9.60
2023-03-11T20:02:32.221Z,10.03
2023-03-11T20:06:34.031Z,15.50
2023-03-11T20:10:40.544Z,7.50
2023-03-11T20:14:42.855Z,11.37
2023-03-11T20:18:44.516Z,18.10
2023-03-11T20:22:45.876Z,20.30
2023-03-11T20:26:48.840Z,12.63
2023-03-11T20:30:52.061Z,12.90
2023-03-11T20:34:53.473Z,14.47
2023-03-11T20:38:56.128Z,10.20
2023-03-11T20:42:57.605Z,12.30
2023-03-11T20:46:59.240Z,16.60
2023-03-11T20:51:13.705Z,16.00
2023-03-11T20:55:15.209Z,14.30
2023-03-11T20:59:16.898Z,14.87
2023-03-11T21:03:18.467Z,17.13
2023-03-11T21:07:19.870Z,13.13
2023-03-11T21:11:22.138Z,22.83
2023-03-11T21:15:23.551Z,18.97
2023-03-11T21:19:25.008Z,15.20
2023-03-11T21:23:26.492Z,15.67
2023-03-11T21:27:28.044Z,16.87
2023-03-11T21:31:30.009Z,16.47
2023-03-11T21:35:34.335Z,16.63
2023-03-11T21:39:35.826Z,15.90
2023-03-11T21:43:38.953Z,13.97
2023-03-11T21:47:40.524Z,13.17
2023-03-11T21:51:41.868Z,22.33
2023-03-11T21:55:43.531Z,14.20
2023-03-11T21:59:45.004Z,16.03
2023-03-11T22:03:47.946Z,17.13
2023-03-11T22:07:49.564Z,18.07
2023-03-11T22:11:51.158Z,15.60
2023-03-11T22:15:52.827Z,15.47
2023-03-11T22:19:54.393Z,15.90
2023-03-11T22:23:55.785Z,15.20
2023-03-11T22:27:57.166Z,16.03
2023-03-11T22:31:58.602Z,14.77
2023-03-11T22:36:02.031Z,14.87
2023-03-11T22:40:07.493Z,15.20
2023-03-11T22:44:08.858Z,14.90
2023-03-11T22:48:10.229Z,12.40
2023-03-11T22:52:11.606Z,12.00
2023-03-11T22:56:14.985Z,14.07
2023-03-11T23:00:20.822Z,12.80
2023-03-11T23:04:22.276Z,13.47
2023-03-11T23:08:23.761Z,14.13
2023-03-11T23:12:25.233Z,12.23
2023-03-11T23:16:26.648Z,15.83
2023-03-11T23:20:28.245Z,12.23
2023-03-11T23:24:29.716Z,12.47
2023-03-11T23:28:31.150Z,12.70
2023-03-11T23:32:32.799Z,10.83
2023-03-11T23:36:34.373Z,12.00
2023-03-11T23:40:35.750Z,12.03
2023-03-11T23:44:37.129Z,11.70
2023-03-11T23:48:38.802Z,13.03
2023-03-11T23:52:40.143Z,12.70
2023-03-11T23:56:43.544Z,12.40
